TimeHST,TemperatureF,Dew PointF,Humidity,Sea Level PressureIn,VisibilityMPH,Wind Direction,Wind SpeedMPH,Gust SpeedMPH,PrecipitationIn,Events,Conditions,WindDirDegrees,DateUTC
12:53 AM,73.0,62.1,68,30.03,10.0,Calm,Calm,-,N/A,,Overcast,0,2013-03-08 10:53:00
1:53 AM,73.0,61.0,66,30.01,10.0,Calm,Calm,-,N/A,,Mostly Cloudy,0,2013-03-08 11:53:00
2:53 AM,72.0,60.1,66,29.98,10.0,East,3.5,-,N/A,,Mostly Cloudy,80,2013-03-08 12:53:00
3:53 AM,70.0,59.0,68,29.97,10.0,ENE,3.5,-,N/A,,Scattered Clouds,70,2013-03-08 13:53:00
4:53 AM,69.1,57.9,68,29.96,10.0,ENE,5.8,-,N/A,,Scattered Clouds,70,2013-03-08 14:53:00
5:53 AM,68.0,57.0,68,29.97,10.0,ENE,4.6,-,N/A,,Clear,60,2013-03-08 15:53:00
6:53 AM,66.9,57.0,70,29.99,10.0,ENE,5.8,-,N/A,,Clear,70,2013-03-08 16:53:00
7:53 AM,72.0,59.0,64,29.99,10.0,ENE,4.6,-,N/A,,Clear,60,2013-03-08 17:53:00
8:53 AM,75.9,63.0,64,30.01,10.0,WNW,4.6,-,N/A,,Clear,290,2013-03-08 18:53:00
9:53 AM,77.0,63.0,62,30.01,10.0,West,6.9,-,N/A,,Clear,260,2013-03-08 19:53:00
10:53 AM,78.1,64.0,62,30.00,10.0,WSW,6.9,-,N/A,,Clear,250,2013-03-08 20:53:00
11:53 AM,79.0,62.1,56,29.98,10.0,West,8.1,-,N/A,,Partly Cloudy,270,2013-03-08 21:53:00
12:53 PM,78.1,63.0,60,29.95,10.0,West,8.1,-,N/A,,Clear,280,2013-03-08 22:53:00
1:53 PM,79.0,62.1,56,29.93,10.0,West,8.1,-,N/A,,Scattered Clouds,280,2013-03-08 23:53:00
2:53 PM,80.1,62.1,54,29.91,10.0,WNW,8.1,-,N/A,,Scattered Clouds,290,2013-03-09 00:53:00
3:53 PM,79.0,63.0,58,29.90,10.0,WNW,8.1,-,N/A,,Mostly Cloudy,300,2013-03-09 01:53:00
4:53 PM,79.0,63.0,58,29.90,10.0,WNW,8.1,-,N/A,,Scattered Clouds,290,2013-03-09 02:53:00
5:53 PM,77.0,64.0,64,29.92,10.0,WNW,8.1,-,N/A,,Clear,290,2013-03-09 03:53:00
6:53 PM,75.0,64.0,69,29.94,10.0,WNW,3.5,-,N/A,,Partly Cloudy,290,2013-03-09 04:53:00
7:53 PM,75.9,64.9,69,29.96,10.0,SSW,10.4,-,N/A,,Mostly Cloudy,200,2013-03-09 05:53:00
8:53 PM,75.0,64.0,69,29.98,10.0,South,11.5,-,N/A,,Clear,180,2013-03-09 06:53:00
9:23 PM,75.2,64.4,69,29.98,10.0,South,11.5,-,N/A,,Mostly Cloudy,170,2013-03-09 07:23:00
9:53 PM,75.0,64.0,69,29.99,10.0,SSE,15.0,19.6,N/A,,Mostly Cloudy,160,2013-03-09 07:53:00
10:11 PM,75.2,64.4,69,29.98,10.0,South,13.8,-,N/A,,Scattered Clouds,170,2013-03-09 08:11:00
10:25 PM,75.2,64.4,69,29.98,10.0,South,15.0,-,N/A,,Mostly Cloudy,170,2013-03-09 08:25:00
10:53 PM,73.9,63.0,68,29.98,10.0,SE,6.9,-,N/A,,Mostly Cloudy,130,2013-03-09 08:53:00
11:02 PM,73.4,62.6,69,29.98,10.0,ESE,6.9,-,N/A,,Scattered Clouds,110,2013-03-09 09:02:00
11:53 PM,73.0,62.1,68,29.98,10.0,East,5.8,-,N/A,,Clear,90,2013-03-09 09:53:00